Time;durP1;ratioP1;P1;durP2;ratioP2;P2;SDS_P1;SDS_P2;PMS_P1;PMS_P2;Temp;Humidity;BMP_temperature;BMP_pressure;BME280_temperature;BME280_humidity;BME280_pressure;Samples;Min_cycle;Max_cycle;Signal;HPM_P1;HPM_P2
2021/07/14 00:00:01;;;;;;;13.43;9.07;;;;;;;;;;5055473;28;20457;-71
2021/07/14 00:02:29;;;;;;;10.17;8.83;;;;;;;;;;5058388;28;20472;-71
2021/07/14 00:04:57;;;;;;;12.87;9.80;;;;;;;;;;5058028;28;20485;-71
2021/07/14 00:07:26;;;;;;;12.03;8.83;;;;;;;;;;5051321;28;20443;-71
2021/07/14 00:09:54;;;;;;;9.60;8.60;;;;;;;;;;5056925;28;20458;-71
2021/07/14 00:12:22;;;;;;;12.60;9.73;;;;;;;;;;5057299;28;20453;-71
2021/07/14 00:17:00;;;;;;;11.03;9.83;;;;;;;;;;5051059;28;20709;-71
2021/07/14 00:23:22;;;;;;;14.60;9.50;;;;;;;;;;5057682;28;20463;-71
2021/07/14 00:25:50;;;;;;;10.77;9.00;;;;;;;;;;5057575;28;20600;-70
2021/07/14 00:28:18;;;;;;;11.40;9.77;;;;;;;;;;5057862;28;20457;-71
2021/07/14 00:30:51;;;;;;;14.10;9.60;;;;;;;;;;5057660;28;20465;-71
2021/07/14 00:33:19;;;;;;;12.00;10.30;;;;;;;;;;5057522;28;20457;-71
2021/07/14 00:35:47;;;;;;;9.80;8.70;;;;;;;;;;5057558;28;20461;-71
2021/07/14 00:38:15;;;;;;;13.53;9.50;;;;;;;;;;5057136;28;20458;-71
2021/07/14 00:40:44;;;;;;;10.30;8.97;;;;;;;;;;5056880;28;20522;-71
2021/07/14 00:43:12;;;;;;;14.53;9.83;;;;;;;;;;5056865;28;20542;-71
2021/07/14 00:45:41;;;;;;;13.90;9.80;;;;;;;;;;5056274;28;20497;-71
2021/07/14 00:48:09;;;;;;;13.40;9.53;;;;;;;;;;5057185;28;20465;-72
2021/07/14 00:50:39;;;;;;;11.60;10.40;;;;;;;;;;5057332;28;20558;-71
2021/07/14 00:53:07;;;;;;;13.43;10.87;;;;;;;;;;5056836;28;20936;-71
2021/07/14 00:55:35;;;;;;;11.17;9.07;;;;;;;;;;5056653;28;20483;-71
2021/07/14 00:58:05;;;;;;;10.83;9.10;;;;;;;;;;5057663;28;20462;-71
2021/07/14 01:00:33;;;;;;;11.17;8.97;;;;;;;;;;5057328;28;20959;-71
2021/07/14 01:03:01;;;;;;;13.23;10.90;;;;;;;;;;5056903;28;20464;-70
2021/07/14 01:05:33;;;;;;;11.20;9.60;;;;;;;;;;5055674;28;20484;-71
2021/07/14 01:08:05;;;;;;;11.23;9.13;;;;;;;;;;5055307;28;20457;-72
2021/07/14 01:10:36;;;;;;;11.83;8.73;;;;;;;;;;5056950;28;20782;-71
2021/07/14 01:13:09;;;;;;;13.13;9.93;;;;;;;;;;5056545;28;20461;-72
2021/07/14 01:15:38;;;;;;;10.80;9.47;;;;;;;;;;5056567;28;20468;-71
2021/07/14 01:18:12;;;;;;;9.83;8.87;;;;;;;;;;5056582;28;20454;-71
2021/07/14 01:21:04;;;;;;;11.30;9.67;;;;;;;;;;5057062;28;20473;-71
2021/07/14 01:23:43;;;;;;;11.17;8.67;;;;;;;;;;5032338;28;21247;-71
2021/07/14 01:26:17;;;;;;;9.80;8.57;;;;;;;;;;5055638;28;20485;-71
2021/07/14 01:28:48;;;;;;;9.83;8.70;;;;;;;;;;5057613;28;20542;-71
2021/07/14 01:31:20;;;;;;;10.20;9.10;;;;;;;;;;5057253;28;20473;-70
2021/07/14 01:33:50;;;;;;;12.67;9.00;;;;;;;;;;5056670;28;20895;-71
2021/07/14 01:36:19;;;;;;;15.80;10.27;;;;;;;;;;5056595;28;20465;-72
2021/07/14 01:38:48;;;;;;;10.77;9.67;;;;;;;;;;5056392;28;20841;-72
2021/07/14 01:41:16;;;;;;;10.40;9.00;;;;;;;;;;5056064;28;20519;-72
2021/07/14 01:43:47;;;;;;;10.03;8.90;;;;;;;;;;5056238;28;20468;-72
2021/07/14 01:46:17;;;;;;;10.00;9.00;;;;;;;;;;5056406;28;20501;-72
2021/07/14 01:48:45;;;;;;;10.13;8.97;;;;;;;;;;5055835;28;20461;-72
2021/07/14 01:51:13;;;;;;;10.83;9.43;;;;;;;;;;5056334;28;20477;-72
2021/07/14 01:53:41;;;;;;;12.17;10.23;;;;;;;;;;5056301;28;20457;-72
2021/07/14 01:56:11;;;;;;;13.03;10.00;;;;;;;;;;5056432;28;20498;-72
2021/07/14 01:58:39;;;;;;;10.20;9.00;;;;;;;;;;5056483;28;20873;-71
2021/07/14 02:01:07;;;;;;;12.43;10.37;;;;;;;;;;5056783;28;20896;-73
2021/07/14 02:03:55;;;;;;;12.00;9.20;;;;;;;;;;5055899;28;20713;-71
2021/07/14 02:06:23;;;;;;;12.30;9.77;;;;;;;;;;5055943;28;20517;-72
2021/07/14 02:08:51;;;;;;;14.07;11.17;;;;;;;;;;5056483;28;20545;-72
2021/07/14 02:11:23;;;;;;;11.80;10.60;;;;;;;;;;5055975;28;20523;-72
2021/07/14 02:13:52;;;;;;;12.63;10.40;;;;;;;;;;5056122;28;20453;-72
2021/07/14 02:16:20;;;;;;;11.40;9.67;;;;;;;;;;5056164;28;20488;-71
2021/07/14 02:18:52;;;;;;;12.23;9.93;;;;;;;;;;5056353;28;20805;-71
2021/07/14 02:21:19;;;;;;;11.40;9.67;;;;;;;;;;5056283;28;20473;-72
2021/07/14 02:23:47;;;;;;;13.33;9.70;;;;;;;;;;5056440;28;20523;-71
2021/07/14 02:26:15;;;;;;;14.57;9.70;;;;;;;;;;5056397;28;20554;-72
2021/07/14 02:28:43;;;;;;;10.40;8.83;;;;;;;;;;5056726;28;20511;-72
2021/07/14 02:31:11;;;;;;;12.20;9.90;;;;;;;;;;5056342;28;20526;-72
2021/07/14 02:33:38;;;;;;;13.80;9.03;;;;;;;;;;5055383;28;20461;-71
2021/07/14 02:36:10;;;;;;;10.73;9.63;;;;;;;;;;5056172;28;20496;-72
2021/07/14 02:38:39;;;;;;;11.87;10.17;;;;;;;;;;5059001;28;20468;-72
2021/07/14 02:41:09;;;;;;;12.03;10.23;;;;;;;;;;5060015;28;20472;-72
2021/07/14 02:43:38;;;;;;;11.07;9.97;;;;;;;;;;5058964;28;20523;-72
2021/07/14 02:46:11;;;;;;;13.37;10.10;;;;;;;;;;5059717;28;20788;-72
2021/07/14 02:48:40;;;;;;;10.97;9.83;;;;;;;;;;5059930;28;20461;-72
2021/07/14 02:51:10;;;;;;;10.60;9.47;;;;;;;;;;5059281;28;20491;-72
2021/07/14 02:53:47;;;;;;;11.13;9.67;;;;;;;;;;5058942;28;20938;-72
2021/07/14 02:56:18;;;;;;;10.60;9.47;;;;;;;;;;5058752;28;20534;-72
2021/07/14 02:58:49;;;;;;;14.50;10.33;;;;;;;;;;5059493;28;20724;-71
2021/07/14 03:01:17;;;;;;;10.83;9.73;;;;;;;;;;5059095;28;20461;-72
2021/07/14 03:03:46;;;;;;;16.73;10.67;;;;;;;;;;5059020;28;20457;-71
2021/07/14 03:06:15;;;;;;;13.70;10.07;;;;;;;;;;5068989;28;20845;-72
2021/07/14 03:08:47;;;;;;;11.20;10.00;;;;;;;;;;5078879;28;20456;-72
2021/07/14 03:11:15;;;;;;;11.30;10.10;;;;;;;;;;5079567;28;20470;-72
2021/07/14 03:13:45;;;;;;;11.30;9.43;;;;;;;;;;5078781;28;20445;-72
2021/07/14 03:16:13;;;;;;;14.00;9.57;;;;;;;;;;5079057;28;20476;-72
2021/07/14 03:18:46;;;;;;;15.53;10.13;;;;;;;;;;5078390;28;20871;-72
2021/07/14 03:21:15;;;;;;;10.93;9.27;;;;;;;;;;5078428;28;20471;-72
2021/07/14 03:23:43;;;;;;;10.80;9.20;;;;;;;;;;5078720;28;20526;-71
2021/07/14 03:26:11;;;;;;;17.10;10.53;;;;;;;;;;5078690;28;20573;-72
2021/07/14 03:28:40;;;;;;;11.20;10.03;;;;;;;;;;5078397;28;20746;-72
2021/07/14 03:31:09;;;;;;;11.33;9.20;;;;;;;;;;5078969;28;20464;-72
2021/07/14 03:33:37;;;;;;;13.70;10.33;;;;;;;;;;5078318;28;20465;-72
2021/07/14 03:36:05;;;;;;;12.13;9.43;;;;;;;;;;5079329;28;20464;-72
2021/07/14 03:38:35;;;;;;;12.93;9.30;;;;;;;;;;5078601;28;20459;-72
2021/07/14 03:41:04;;;;;;;10.90;9.13;;;;;;;;;;5077914;28;20534;-72
2021/07/14 03:43:32;;;;;;;10.47;9.30;;;;;;;;;;5078550;28;20518;-72
2021/07/14 03:46:00;;;;;;;12.00;9.37;;;;;;;;;;5078454;28;20488;-72
2021/07/14 03:48:35;;;;;;;10.80;9.70;;;;;;;;;;5077578;28;20460;-72
2021/07/14 03:51:04;;;;;;;13.97;10.77;;;;;;;;;;5078225;28;20799;-72
2021/07/14 03:53:32;;;;;;;12.07;9.80;;;;;;;;;;5078464;28;20743;-72
2021/07/14 03:56:01;;;;;;;13.80;10.97;;;;;;;;;;5077642;28;20453;-72
2021/07/14 03:58:29;;;;;;;13.13;11.07;;;;;;;;;;5078659;28;20472;-72
2021/07/14 04:00:57;;;;;;;10.60;9.50;;;;;;;;;;5077874;28;20460;-72
2021/07/14 04:03:26;;;;;;;13.20;10.10;;;;;;;;;;5079086;28;20484;-72
2021/07/14 04:05:55;;;;;;;13.00;11.43;;;;;;;;;;5078201;28;20484;-72
2021/07/14 04:08:26;;;;;;;16.80;10.97;;;;;;;;;;5077799;28;20875;-72
2021/07/14 04:10:54;;;;;;;11.43;10.33;;;;;;;;;;5077710;28;20542;-72
2021/07/14 04:13:23;;;;;;;17.20;11.17;;;;;;;;;;5078113;28;20507;-72
2021/07/14 04:15:51;;;;;;;12.23;10.80;;;;;;;;;;5077389;28;20471;-72
2021/07/14 04:18:18;;;;;;;14.97;10.63;;;;;;;;;;5075550;28;20457;-72
2021/07/14 04:20:46;;;;;;;12.90;10.77;;;;;;;;;;5058126;28;20777;-72
2021/07/14 04:23:15;;;;;;;13.17;10.80;;;;;;;;;;5058228;28;20878;-73
2021/07/14 04:25:43;;;;;;;14.00;11.53;;;;;;;;;;5057697;28;20477;-72
2021/07/14 04:28:10;;;;;;;17.53;11.30;;;;;;;;;;5057610;28;20473;-71
2021/07/14 04:30:40;;;;;;;13.93;10.83;;;;;;;;;;5057238;28;20515;-71
2021/07/14 04:33:07;;;;;;;15.10;12.80;;;;;;;;;;5057363;28;20797;-72
2021/07/14 04:35:35;;;;;;;15.67;11.10;;;;;;;;;;5056553;28;20790;-71
2021/07/14 04:38:03;;;;;;;16.40;13.50;;;;;;;;;;5057028;28;20473;-72
2021/07/14 04:40:31;;;;;;;14.60;12.53;;;;;;;;;;5056429;28;20748;-72
2021/07/14 04:42:59;;;;;;;14.17;12.03;;;;;;;;;;5056681;28;20552;-72
2021/07/14 04:45:27;;;;;;;14.10;11.47;;;;;;;;;;5056104;28;20515;-71
2021/07/14 04:47:56;;;;;;;13.10;11.70;;;;;;;;;;5056355;28;20468;-71
2021/07/14 04:50:24;;;;;;;13.40;11.37;;;;;;;;;;5056186;28;20453;-72
2021/07/14 04:52:51;;;;;;;13.90;10.50;;;;;;;;;;5055380;28;20457;-72
2021/07/14 04:55:20;;;;;;;17.27;12.53;;;;;;;;;;5056188;28;20449;-72
2021/07/14 04:57:47;;;;;;;15.53;12.30;;;;;;;;;;5056109;28;20473;-72
2021/07/14 05:00:16;;;;;;;14.63;12.37;;;;;;;;;;5055876;28;20469;-72
2021/07/14 05:02:44;;;;;;;12.90;11.50;;;;;;;;;;5056825;28;20479;-71
2021/07/14 05:05:15;;;;;;;14.23;12.20;;;;;;;;;;5055945;28;20465;-72
2021/07/14 05:07:44;;;;;;;16.83;12.67;;;;;;;;;;5056475;28;20519;-72
2021/07/14 05:10:12;;;;;;;16.70;13.77;;;;;;;;;;5056593;28;20810;-72
2021/07/14 05:12:41;;;;;;;17.90;13.10;;;;;;;;;;5056175;28;20768;-72
2021/07/14 05:15:09;;;;;;;15.70;12.97;;;;;;;;;;5054398;28;20461;-72
2021/07/14 05:17:37;;;;;;;18.20;12.20;;;;;;;;;;5053689;28;20464;-72
2021/07/14 05:20:05;;;;;;;18.50;13.00;;;;;;;;;;5053799;28;20798;-72
2021/07/14 05:22:34;;;;;;;21.23;15.10;;;;;;;;;;5053138;28;20453;-72
2021/07/14 05:25:02;;;;;;;22.37;15.63;;;;;;;;;;5053859;28;20959;-72
2021/07/14 05:27:30;;;;;;;23.83;13.70;;;;;;;;;;5053881;28;20480;-72
2021/07/14 05:29:59;;;;;;;20.77;16.80;;;;;;;;;;5053405;28;20963;-72
2021/07/14 05:32:27;;;;;;;17.60;15.50;;;;;;;;;;5051067;28;20450;-72
2021/07/14 05:34:55;;;;;;;16.13;13.53;;;;;;;;;;5054170;28;20534;-72
2021/07/14 05:37:22;;;;;;;18.40;15.07;;;;;;;;;;5053261;28;20461;-72
2021/07/14 05:39:51;;;;;;;15.60;13.77;;;;;;;;;;5049244;28;20885;-72
2021/07/14 05:42:24;;;;;;;17.97;16.07;;;;;;;;;;5050400;28;20528;-72
2021/07/14 05:44:52;;;;;;;19.33;15.43;;;;;;;;;;5054111;28;20553;-72
2021/07/14 05:47:19;;;;;;;17.57;15.30;;;;;;;;;;5046651;28;20947;-72
2021/07/14 05:49:47;;;;;;;20.93;14.90;;;;;;;;;;5039575;28;20527;-72
2021/07/14 05:52:18;;;;;;;16.97;14.60;;;;;;;;;;5052628;28;20531;-72
2021/07/14 05:54:46;;;;;;;16.63;14.83;;;;;;;;;;5052787;28;20461;-76
2021/07/14 05:57:15;;;;;;;20.70;16.23;;;;;;;;;;5053862;28;20477;-72
2021/07/14 05:59:43;;;;;;;19.83;16.43;;;;;;;;;;5054255;28;20468;-72
2021/07/14 06:02:10;;;;;;;16.57;13.73;;;;;;;;;;5053520;28;20888;-73
2021/07/14 06:04:39;;;;;;;18.17;14.90;;;;;;;;;;5054275;28;20453;-72
2021/07/14 06:07:07;;;;;;;17.33;14.33;;;;;;;;;;5054352;28;20480;-72
2021/07/14 06:09:35;;;;;;;16.63;13.90;;;;;;;;;;5054497;28;20461;-72
2021/07/14 06:12:03;;;;;;;17.20;14.30;;;;;;;;;;5055303;28;20475;-72
2021/07/14 06:14:37;;;;;;;17.23;15.30;;;;;;;;;;5059735;28;20479;-73
2021/07/14 06:17:05;;;;;;;16.03;14.33;;;;;;;;;;5058495;28;20465;-72
2021/07/14 06:19:33;;;;;;;18.97;14.73;;;;;;;;;;5057092;28;20475;-72
2021/07/14 06:22:01;;;;;;;17.40;15.23;;;;;;;;;;5049091;28;20473;-72
2021/07/14 06:24:29;;;;;;;16.20;14.47;;;;;;;;;;5057639;28;20469;-72
2021/07/14 06:26:57;;;;;;;18.17;13.33;;;;;;;;;;5057736;28;20825;-72
2021/07/14 06:29:25;;;;;;;14.80;13.20;;;;;;;;;;5067451;28;20499;-72
2021/07/14 06:31:54;;;;;;;15.90;13.70;;;;;;;;;;5068397;28;20567;-72
2021/07/14 06:34:22;;;;;;;15.30;12.30;;;;;;;;;;5058191;28;20457;-72
2021/07/14 06:36:50;;;;;;;14.20;12.80;;;;;;;;;;5057695;28;20464;-73
2021/07/14 06:39:18;;;;;;;14.50;12.70;;;;;;;;;;5059437;28;20515;-72
2021/07/14 06:41:46;;;;;;;16.87;12.43;;;;;;;;;;5058932;28;20757;-72
2021/07/14 06:44:16;;;;;;;13.40;11.97;;;;;;;;;;5058978;28;20579;-72
2021/07/14 06:46:44;;;;;;;15.17;13.67;;;;;;;;;;5058379;28;20557;-72
2021/07/14 06:49:13;;;;;;;13.90;11.03;;;;;;;;;;5058681;28;20865;-72
2021/07/14 06:51:45;;;;;;;13.73;12.13;;;;;;;;;;5055166;28;20470;-72
2021/07/14 06:54:14;;;;;;;15.13;12.90;;;;;;;;;;5046876;28;20438;-72
2021/07/14 06:56:55;;;;;;;13.70;11.70;;;;;;;;;;5053364;28;20465;-72
2021/07/14 06:59:25;;;;;;;12.73;11.37;;;;;;;;;;5058950;28;20461;-72
2021/07/14 07:02:01;;;;;;;14.90;12.07;;;;;;;;;;5058862;28;20560;-73
2021/07/14 07:04:31;;;;;;;12.40;11.10;;;;;;;;;;5057481;28;20495;-73
2021/07/14 07:06:59;;;;;;;11.40;10.30;;;;;;;;;;5052269;28;20485;-73
2021/07/14 07:09:27;;;;;;;12.13;10.80;;;;;;;;;;5057700;28;20469;-74
2021/07/14 07:11:55;;;;;;;14.47;10.50;;;;;;;;;;5055690;28;20453;-74
2021/07/14 07:14:23;;;;;;;11.27;9.67;;;;;;;;;;5058371;28;20465;-74
2021/07/14 07:16:51;;;;;;;14.40;9.87;;;;;;;;;;5057750;28;20452;-75
2021/07/14 07:19:21;;;;;;;13.20;10.60;;;;;;;;;;5057980;28;20555;-74
2021/07/14 07:21:51;;;;;;;13.73;10.10;;;;;;;;;;5056326;28;20445;-73
2021/07/14 07:24:19;;;;;;;11.60;10.40;;;;;;;;;;5058194;28;20481;-73
2021/07/14 07:26:47;;;;;;;14.70;10.20;;;;;;;;;;5057427;28;20558;-73
2021/07/14 07:29:16;;;;;;;12.20;10.40;;;;;;;;;;5058086;28;20465;-73
2021/07/14 07:31:44;;;;;;;13.13;10.50;;;;;;;;;;5056786;28;20556;-73
2021/07/14 07:34:14;;;;;;;11.20;9.00;;;;;;;;;;5056406;28;20718;-73
2021/07/14 07:36:43;;;;;;;10.93;9.07;;;;;;;;;;5057140;28;20560;-73
2021/07/14 07:39:16;;;;;;;13.10;10.37;;;;;;;;;;5054766;28;20454;-74
2021/07/14 07:41:46;;;;;;;11.53;9.17;;;;;;;;;;5056567;28;20484;-73
2021/07/14 07:44:14;;;;;;;10.53;9.43;;;;;;;;;;5056709;28;20882;-72
2021/07/14 07:46:43;;;;;;;12.63;10.40;;;;;;;;;;5055454;28;20580;-72
2021/07/14 07:49:10;;;;;;;12.07;8.50;;;;;;;;;;5056658;28;20485;-73
2021/07/14 07:51:43;;;;;;;12.77;9.03;;;;;;;;;;5059927;28;20510;-73
2021/07/14 07:54:13;;;;;;;11.10;9.43;;;;;;;;;;5075458;28;20472;-72
2021/07/14 07:56:41;;;;;;;11.63;8.80;;;;;;;;;;5075613;28;20521;-73
2021/07/14 07:59:09;;;;;;;12.60;9.87;;;;;;;;;;5071871;28;20997;-73
2021/07/14 08:01:37;;;;;;;11.67;9.43;;;;;;;;;;5055998;28;20812;-73
2021/07/14 08:04:07;;;;;;;14.23;9.20;;;;;;;;;;5056217;28;21451;-73
2021/07/14 08:06:38;;;;;;;10.27;9.03;;;;;;;;;;5056020;28;20546;-73
2021/07/14 08:09:08;;;;;;;11.97;10.70;;;;;;;;;;5053354;28;21058;-73
2021/07/14 08:11:37;;;;;;;13.10;9.53;;;;;;;;;;5049191;28;20497;-73
2021/07/14 08:14:07;;;;;;;11.97;10.00;;;;;;;;;;5056159;28;20908;-73
2021/07/14 08:19:17;;;;;;;14.33;12.07;;;;;;;;;;5053673;28;20461;-73
2021/07/14 08:21:46;;;;;;;11.37;10.10;;;;;;;;;;5055819;28;20482;-72
2021/07/14 08:24:14;;;;;;;10.33;9.20;;;;;;;;;;5055797;28;20534;-73
2021/07/14 08:26:52;;;;;;;10.97;9.80;;;;;;;;;;5056340;28;20484;-73
2021/07/14 08:29:21;;;;;;;13.17;11.20;;;;;;;;;;5055918;28;20785;-72
2021/07/14 08:31:54;;;;;;;13.90;10.80;;;;;;;;;;5055911;28;20896;-75
2021/07/14 08:34:28;;;;;;;14.63;11.20;;;;;;;;;;5055277;28;20500;-72
2021/07/14 08:36:58;;;;;;;16.53;11.13;;;;;;;;;;5055460;28;20465;-71
2021/07/14 08:39:26;;;;;;;14.50;11.87;;;;;;;;;;5054796;28;20892;-73
2021/07/14 08:41:58;;;;;;;21.20;11.47;;;;;;;;;;5055409;28;20465;-73
2021/07/14 08:44:29;;;;;;;14.93;11.70;;;;;;;;;;5055478;28;20522;-73
2021/07/14 08:46:59;;;;;;;15.87;11.57;;;;;;;;;;5054124;28;20491;-74
2021/07/14 08:49:29;;;;;;;13.03;11.57;;;;;;;;;;5054865;28;20488;-74
2021/07/14 08:52:01;;;;;;;15.70;11.20;;;;;;;;;;5042089;28;20556;-74
2021/07/14 08:54:47;;;;;;;14.33;12.07;;;;;;;;;;5053010;28;20608;-74
2021/07/14 08:57:18;;;;;;;14.50;11.67;;;;;;;;;;5055458;28;20504;-73
2021/07/14 08:59:47;;;;;;;16.73;11.07;;;;;;;;;;5056321;28;20445;-73
2021/07/14 09:02:15;;;;;;;12.20;11.00;;;;;;;;;;5055989;28;20457;-72
2021/07/14 09:04:44;;;;;;;12.17;10.70;;;;;;;;;;5055628;28;20444;-73
2021/07/14 09:07:49;;;;;;;17.73;11.00;;;;;;;;;;5054856;28;20481;-76
2021/07/14 09:10:26;;;;;;;18.50;13.17;;;;;;;;;;5053445;28;20464;-73
2021/07/14 09:12:58;;;;;;;14.20;11.10;;;;;;;;;;5061165;28;20465;-73
2021/07/14 09:15:30;;;;;;;13.17;11.80;;;;;;;;;;5055019;28;20470;-72
2021/07/14 09:18:07;;;;;;;16.83;12.00;;;;;;;;;;5056260;28;20469;-73
2021/07/14 09:20:36;;;;;;;14.43;11.23;;;;;;;;;;5060774;28;20449;-73
2021/07/14 09:23:07;;;;;;;12.97;11.40;;;;;;;;;;5056031;28;20948;-73
2021/07/14 09:25:45;;;;;;;18.37;12.23;;;;;;;;;;5056183;28;20894;-73
2021/07/14 09:28:15;;;;;;;11.73;10.53;;;;;;;;;;5052778;28;20485;-73
2021/07/14 09:30:46;;;;;;;15.37;12.90;;;;;;;;;;5052139;28;21362;-73
2021/07/14 09:33:15;;;;;;;14.30;10.80;;;;;;;;;;5053043;28;20757;-73
2021/07/14 09:35:59;;;;;;;11.80;10.67;;;;;;;;;;5053743;28;20458;-73
2021/07/14 09:41:10;;;;;;;14.00;11.80;;;;;;;;;;5052261;28;20468;-73
2021/07/14 09:43:40;;;;;;;12.80;11.50;;;;;;;;;;5053464;28;20457;-74
2021/07/14 09:46:19;;;;;;;14.57;11.17;;;;;;;;;;5055250;28;20483;-75
2021/07/14 09:48:53;;;;;;;12.53;11.23;;;;;;;;;;5056356;28;20542;-74
2021/07/14 09:51:34;;;;;;;15.77;14.23;;;;;;;;;;5055280;28;20465;-75
2021/07/14 09:54:06;;;;;;;15.50;13.70;;;;;;;;;;5057344;28;20504;-74
2021/07/14 09:56:46;;;;;;;11.53;10.33;;;;;;;;;;5057233;28;20457;-73
2021/07/14 09:59:19;;;;;;;12.37;10.50;;;;;;;;;;5058482;28;20469;-73
2021/07/14 10:01:51;;;;;;;16.63;11.03;;;;;;;;;;5058471;28;20523;-73
2021/07/14 10:04:25;;;;;;;11.40;10.30;;;;;;;;;;5057307;28;20583;-74
2021/07/14 10:07:06;;;;;;;12.07;10.80;;;;;;;;;;5050404;28;20452;-73
2021/07/14 10:09:34;;;;;;;12.63;10.70;;;;;;;;;;5055358;28;20445;-72
2021/07/14 10:12:21;;;;;;;13.17;10.40;;;;;;;;;;5059061;28;20853;-74
2021/07/14 10:14:55;;;;;;;14.27;12.93;;;;;;;;;;5063250;28;20492;-74
2021/07/14 10:17:45;;;;;;;13.87;10.87;;;;;;;;;;5057915;28;20461;-74
2021/07/14 10:20:37;;;;;;;12.17;10.83;;;;;;;;;;5058284;28;20504;-73
2021/07/14 10:23:09;;;;;;;12.33;10.73;;;;;;;;;;5052103;28;20461;-73
2021/07/14 10:26:00;;;;;;;12.17;10.90;;;;;;;;;;5058895;28;20441;-73
2021/07/14 10:28:30;;;;;;;18.77;12.07;;;;;;;;;;5052405;28;20548;-73
2021/07/14 10:31:02;;;;;;;17.93;12.40;;;;;;;;;;5057352;28;20540;-72
2021/07/14 10:33:42;;;;;;;12.87;10.70;;;;;;;;;;5057563;28;20472;-73
2021/07/14 10:36:14;;;;;;;15.10;10.57;;;;;;;;;;5057988;28;20449;-73
2021/07/14 10:38:47;;;;;;;13.20;11.90;;;;;;;;;;5056974;28;20559;-73
2021/07/14 10:41:15;;;;;;;14.20;12.80;;;;;;;;;;5058304;28;21098;-73
2021/07/14 10:43:46;;;;;;;13.90;12.47;;;;;;;;;;5058847;28;20868;-73
2021/07/14 10:46:21;;;;;;;14.10;12.07;;;;;;;;;;5056303;28;20546;-74
2021/07/14 10:48:56;;;;;;;14.43;11.83;;;;;;;;;;5056631;28;20499;-73
2021/07/14 10:51:25;;;;;;;14.57;13.07;;;;;;;;;;5059377;28;21081;-73
2021/07/14 10:54:02;;;;;;;14.80;12.10;;;;;;;;;;5056432;28;20483;-73
2021/07/14 10:56:34;;;;;;;14.70;12.43;;;;;;;;;;5054469;28;20587;-73
2021/07/14 10:59:06;;;;;;;15.57;12.73;;;;;;;;;;5053767;28;20489;-74
2021/07/14 11:01:47;;;;;;;12.80;11.37;;;;;;;;;;5056823;28;20481;-73
2021/07/14 11:04:35;;;;;;;14.73;12.70;;;;;;;;;;5053294;28;20478;-73
2021/07/14 11:07:05;;;;;;;13.33;11.33;;;;;;;;;;5028375;28;20441;-73
2021/07/14 11:09:44;;;;;;;15.20;13.30;;;;;;;;;;5055977;28;20457;-73
2021/07/14 11:12:15;;;;;;;15.10;13.50;;;;;;;;;;5057268;28;20449;-74
2021/07/14 11:14:44;;;;;;;14.23;12.73;;;;;;;;;;5051652;28;20453;-73
2021/07/14 11:17:13;;;;;;;15.77;11.80;;;;;;;;;;5058056;28;20456;-74
2021/07/14 11:19:45;;;;;;;15.60;12.73;;;;;;;;;;5053913;28;20654;-73
2021/07/14 11:22:14;;;;;;;12.33;11.13;;;;;;;;;;5052769;28;20440;-73
2021/07/14 11:25:02;;;;;;;14.23;11.80;;;;;;;;;;5056630;28;20527;-73
2021/07/14 11:27:55;;;;;;;16.83;12.27;;;;;;;;;;5052399;28;20446;-73
2021/07/14 11:30:26;;;;;;;18.33;13.17;;;;;;;;;;5053747;28;20780;-74
2021/07/14 11:32:57;;;;;;;16.97;13.57;;;;;;;;;;5051318;28;20510;-73
2021/07/14 11:35:57;;;;;;;13.53;12.13;;;;;;;;;;5057515;28;20465;-74
2021/07/14 11:38:31;;;;;;;15.20;13.30;;;;;;;;;;5073733;28;20460;-73
2021/07/14 11:41:00;;;;;;;12.60;10.07;;;;;;;;;;5077148;28;20456;-76
2021/07/14 11:43:40;;;;;;;16.10;11.70;;;;;;;;;;5076541;28;20460;-73
2021/07/14 11:46:10;;;;;;;12.77;11.00;;;;;;;;;;5075645;28;20468;-73
2021/07/14 11:48:41;;;;;;;15.00;11.50;;;;;;;;;;5069284;28;20470;-73
2021/07/14 11:51:11;;;;;;;12.10;10.20;;;;;;;;;;5055756;28;20469;-73
2021/07/14 11:53:46;;;;;;;13.27;10.03;;;;;;;;;;5055471;28;20437;-74
2021/07/14 11:56:17;;;;;;;16.50;13.17;;;;;;;;;;5057095;28;20464;-74
2021/07/14 11:59:15;;;;;;;13.80;11.53;;;;;;;;;;5054641;28;20551;-73
2021/07/14 12:02:00;;;;;;;19.17;10.83;;;;;;;;;;5049034;28;20469;-73
2021/07/14 12:04:41;;;;;;;12.40;10.30;;;;;;;;;;5060752;28;20538;-72
2021/07/14 12:07:12;;;;;;;13.83;11.00;;;;;;;;;;5076388;28;21021;-72
2021/07/14 12:09:48;;;;;;;13.93;12.10;;;;;;;;;;5057788;28;20500;-73
2021/07/14 12:12:24;;;;;;;16.87;11.67;;;;;;;;;;5056185;28;20813;-73
2021/07/14 12:14:52;;;;;;;15.00;10.60;;;;;;;;;;5055969;28;20465;-73
2021/07/14 12:17:22;;;;;;;13.07;10.57;;;;;;;;;;5056397;28;20548;-73
2021/07/14 12:19:53;;;;;;;16.73;11.90;;;;;;;;;;5056472;28;20932;-72
2021/07/14 12:22:22;;;;;;;14.93;12.10;;;;;;;;;;5056302;28;20905;-73
2021/07/14 12:24:51;;;;;;;12.40;11.10;;;;;;;;;;5055303;28;20466;-73
2021/07/14 12:27:27;;;;;;;14.73;10.90;;;;;;;;;;5055149;28;20442;-73
2021/07/14 12:30:00;;;;;;;18.97;14.03;;;;;;;;;;5037779;28;20485;-73
2021/07/14 12:32:39;;;;;;;14.60;9.93;;;;;;;;;;5049498;28;20454;-74
2021/07/14 12:35:19;;;;;;;13.17;10.70;;;;;;;;;;5056463;28;20857;-74
2021/07/14 12:37:48;;;;;;;20.80;10.90;;;;;;;;;;5046831;28;20569;-72
2021/07/14 12:40:24;;;;;;;12.97;10.10;;;;;;;;;;5057212;28;20449;-72
2021/07/14 12:42:53;;;;;;;11.93;10.30;;;;;;;;;;5055834;28;20448;-72
2021/07/14 12:45:43;;;;;;;14.93;10.20;;;;;;;;;;5055862;28;20476;-72
2021/07/14 12:48:20;;;;;;;11.83;10.17;;;;;;;;;;5053619;28;20489;-73
2021/07/14 12:50:55;;;;;;;12.60;10.23;;;;;;;;;;5066855;28;20472;-72
2021/07/14 12:53:23;;;;;;;11.67;9.50;;;;;;;;;;5041144;28;20454;-72
2021/07/14 12:55:53;;;;;;;11.80;8.97;;;;;;;;;;5038968;28;20465;-73
2021/07/14 12:58:25;;;;;;;11.10;9.07;;;;;;;;;;5044051;28;20520;-73
2021/07/14 13:01:07;;;;;;;11.87;9.90;;;;;;;;;;5056577;28;20865;-73
2021/07/14 13:03:35;;;;;;;11.07;9.53;;;;;;;;;;5051455;28;20469;-73
2021/07/14 13:06:20;;;;;;;13.57;10.23;;;;;;;;;;5063737;28;20534;-73
2021/07/14 13:08:55;;;;;;;12.57;11.03;;;;;;;;;;5059431;28;21290;-74
2021/07/14 13:11:24;;;;;;;17.47;13.07;;;;;;;;;;5047963;28;20469;-73
2021/07/14 13:13:55;;;;;;;15.27;12.20;;;;;;;;;;5054178;28;20726;-73
2021/07/14 13:16:33;;;;;;;14.17;11.90;;;;;;;;;;5050997;28;20469;-72
2021/07/14 13:19:04;;;;;;;16.17;13.00;;;;;;;;;;5048686;28;20429;-73
2021/07/14 13:24:35;;;;;;;16.03;12.37;;;;;;;;;;5053471;28;20453;-73
2021/07/14 13:27:09;;;;;;;13.60;10.93;;;;;;;;;;5048148;28;20765;-73
2021/07/14 13:29:38;;;;;;;11.83;10.03;;;;;;;;;;5052920;28;20881;-73
2021/07/14 13:32:37;;;;;;;13.60;11.50;;;;;;;;;;5055769;28;20489;-74
2021/07/14 13:35:21;;;;;;;15.17;12.07;;;;;;;;;;5050251;28;20476;-73
2021/07/14 13:37:58;;;;;;;12.60;11.40;;;;;;;;;;5036905;28;20469;-73
2021/07/14 13:40:27;;;;;;;14.07;12.67;;;;;;;;;;5055066;28;20453;-73
2021/07/14 13:43:01;;;;;;;13.20;11.17;;;;;;;;;;5055756;28;20947;-73
2021/07/14 13:45:32;;;;;;;15.07;11.10;;;;;;;;;;5035776;28;20527;-73
2021/07/14 13:48:02;;;;;;;15.03;12.73;;;;;;;;;;5049882;28;20453;-73
2021/07/14 13:50:33;;;;;;;15.80;13.70;;;;;;;;;;5056776;28;20468;-73
2021/07/14 13:53:17;;;;;;;17.40;14.90;;;;;;;;;;5054675;28;20509;-73
2021/07/14 13:56:09;;;;;;;14.17;12.67;;;;;;;;;;5053334;28;20543;-73
2021/07/14 13:58:37;;;;;;;14.07;12.40;;;;;;;;;;5052847;28;20515;-74
2021/07/14 14:01:05;;;;;;;13.73;12.33;;;;;;;;;;5053710;28;20579;-73
2021/07/14 14:03:33;;;;;;;14.40;12.90;;;;;;;;;;5054244;28;20523;-73
2021/07/14 14:06:05;;;;;;;14.70;13.10;;;;;;;;;;5054120;28;20938;-73
2021/07/14 14:08:36;;;;;;;20.30;17.50;;;;;;;;;;5034928;28;20555;-73
2021/07/14 14:11:20;;;;;;;13.23;11.93;;;;;;;;;;5041398;28;20461;-74
2021/07/14 14:14:34;;;;;;;;;;;;;;;;;;;;;
2021/07/14 14:17:05;;;;;;;17.20;13.43;;;;;;;;;;5054212;28;20453;-74
2021/07/14 14:19:33;;;;;;;16.93;13.67;;;;;;;;;;5054433;28;20528;-74
2021/07/14 14:22:07;;;;;;;17.30;13.70;;;;;;;;;;5052544;28;20476;-73
2021/07/14 14:24:40;;;;;;;15.17;13.60;;;;;;;;;;5054231;28;20457;-73
2021/07/14 14:27:17;;;;;;;16.00;13.30;;;;;;;;;;5053686;28;20472;-73
2021/07/14 14:29:51;;;;;;;18.03;14.97;;;;;;;;;;5054152;28;20511;-73
2021/07/14 14:32:20;;;;;;;15.90;14.30;;;;;;;;;;5055309;28;20501;-74
2021/07/14 14:34:49;;;;;;;16.10;13.93;;;;;;;;;;5059116;28;20457;-71
2021/07/14 14:37:19;;;;;;;20.63;14.70;;;;;;;;;;5058571;28;20468;-73
2021/07/14 14:39:54;;;;;;;16.70;14.40;;;;;;;;;;5058353;28;20481;-73
2021/07/14 14:42:23;;;;;;;16.20;14.60;;;;;;;;;;5057648;28;20456;-74
2021/07/14 14:44:53;;;;;;;18.73;16.57;;;;;;;;;;5056908;28;20461;-72
2021/07/14 14:50:08;;;;;;;18.47;15.87;;;;;;;;;;5050229;28;20889;-74
2021/07/14 14:52:40;;;;;;;18.17;16.33;;;;;;;;;;5056971;28;20754;-72
2021/07/14 14:55:11;;;;;;;16.30;14.60;;;;;;;;;;5056623;28;20464;-75
2021/07/14 14:57:47;;;;;;;16.40;14.67;;;;;;;;;;5056545;28;20780;-73
2021/07/14 15:00:22;;;;;;;16.57;14.97;;;;;;;;;;5056688;28;20456;-72
2021/07/14 15:02:50;;;;;;;18.00;16.20;;;;;;;;;;5056779;28;20460;-73